sensor_id;sensor_type;location;lat;lon;timestamp;temperature;humidity
33149;DHT22;19506;51.040;3.856;2022-09-24T03:34:16;17.90;99.90
33149;DHT22;19506;51.040;3.856;2022-09-24T03:36:41;17.90;99.90
33149;DHT22;19506;51.040;3.856;2022-09-24T03:39:07;18.10;99.90
33149;DHT22;19506;51.040;3.856;2022-09-24T03:41:33;18.20;99.90
33149;DHT22;19506;51.040;3.856;2022-09-24T03:43:59;18.30;99.90
33149;DHT22;19506;51.040;3.856;2022-09-24T03:46:24;18.40;99.90
33149;DHT22;19506;51.040;3.856;2022-09-24T03:48:52;18.50;99.90
33149;DHT22;19506;51.040;3.856;2022-09-24T03:51:18;18.60;99.90
33149;DHT22;19506;51.040;3.856;2022-09-24T03:53:45;18.60;99.90
33149;DHT22;19506;51.040;3.856;2022-09-24T03:56:12;18.70;99.90
33149;DHT22;19506;51.040;3.856;2022-09-24T03:58:38;18.80;99.90
33149;DHT22;19506;51.040;3.856;2022-09-24T04:01:05;18.80;99.90
33149;DHT22;19506;51.040;3.856;2022-09-24T04:03:31;18.90;99.90
33149;DHT22;19506;51.040;3.856;2022-09-24T04:05:57;18.90;99.90
33149;DHT22;19506;51.040;3.856;2022-09-24T04:08:23;19.00;99.90
33149;DHT22;19506;51.040;3.856;2022-09-24T04:10:49;19.00;99.90
33149;DHT22;19506;51.040;3.856;2022-09-24T04:13:16;19.00;99.90
33149;DHT22;19506;51.040;3.856;2022-09-24T04:15:42;19.10;99.90
33149;DHT22;19506;51.040;3.856;2022-09-24T04:18:08;19.10;99.90
33149;DHT22;19506;51.040;3.856;2022-09-24T04:20:35;19.10;99.90
33149;DHT22;19506;51.040;3.856;2022-09-24T04:23:01;19.10;99.90
33149;DHT22;19506;51.040;3.856;2022-09-24T04:25:29;19.20;99.90
33149;DHT22;19506;51.040;3.856;2022-09-24T04:28:05;19.20;99.90
33149;DHT22;19506;51.040;3.856;2022-09-24T04:30:33;19.20;99.90
33149;DHT22;19506;51.040;3.856;2022-09-24T04:33:00;19.30;99.90
33149;DHT22;19506;51.040;3.856;2022-09-24T04:35:28;19.30;99.90
33149;DHT22;19506;51.040;3.856;2022-09-24T04:37:55;19.30;99.90
33149;DHT22;19506;51.040;3.856;2022-09-24T04:40:21;19.30;99.90
33149;DHT22;19506;51.040;3.856;2022-09-24T04:42:46;19.30;99.90
33149;DHT22;19506;51.040;3.856;2022-09-24T04:45:14;19.30;99.90
33149;DHT22;19506;51.040;3.856;2022-09-24T04:47:47;19.40;99.90
33149;DHT22;19506;51.040;3.856;2022-09-24T04:50:31;19.40;99.90
33149;DHT22;19506;51.040;3.856;2022-09-24T04:53:00;19.40;99.90
33149;DHT22;19506;51.040;3.856;2022-09-24T04:55:26;19.40;99.90
33149;DHT22;19506;51.040;3.856;2022-09-24T04:57:56;19.40;99.90
33149;DHT22;19506;51.040;3.856;2022-09-24T05:00:22;19.40;99.90
33149;DHT22;19506;51.040;3.856;2022-09-24T05:02:55;19.40;99.90
33149;DHT22;19506;51.040;3.856;2022-09-24T05:05:21;19.40;99.90
33149;DHT22;19506;51.040;3.856;2022-09-24T05:07:47;19.40;99.90
33149;DHT22;19506;51.040;3.856;2022-09-24T05:10:14;19.40;99.90
33149;DHT22;19506;51.040;3.856;2022-09-24T05:12:39;19.40;99.90
33149;DHT22;19506;51.040;3.856;2022-09-24T05:15:06;19.40;99.90
33149;DHT22;19506;51.040;3.856;2022-09-24T05:17:31;19.40;99.90
33149;DHT22;19506;51.040;3.856;2022-09-24T05:19:57;19.40;99.90
33149;DHT22;19506;51.040;3.856;2022-09-24T05:22:26;19.40;99.90
33149;DHT22;19506;51.040;3.856;2022-09-24T05:24:52;19.40;99.90
33149;DHT22;19506;51.040;3.856;2022-09-24T05:27:18;19.40;99.90
33149;DHT22;19506;51.040;3.856;2022-09-24T05:29:46;19.50;99.90
33149;DHT22;19506;51.040;3.856;2022-09-24T05:32:14;19.50;99.90
33149;DHT22;19506;51.040;3.856;2022-09-24T05:34:41;19.50;99.90
33149;DHT22;19506;51.040;3.856;2022-09-24T05:37:08;19.40;99.90
33149;DHT22;19506;51.040;3.856;2022-09-24T05:39:33;19.50;99.90
33149;DHT22;19506;51.040;3.856;2022-09-24T05:41:59;19.50;99.90
33149;DHT22;19506;51.040;3.856;2022-09-24T05:44:26;19.50;99.90
33149;DHT22;19506;51.040;3.856;2022-09-24T05:46:51;19.50;99.90
33149;DHT22;19506;51.040;3.856;2022-09-24T05:49:17;19.40;99.90
33149;DHT22;19506;51.040;3.856;2022-09-24T05:51:43;19.40;99.90
33149;DHT22;19506;51.040;3.856;2022-09-24T05:54:09;19.40;99.90
33149;DHT22;19506;51.040;3.856;2022-09-24T05:56:36;19.50;99.90
33149;DHT22;19506;51.040;3.856;2022-09-24T05:59:02;19.40;99.90
33149;DHT22;19506;51.040;3.856;2022-09-24T06:01:28;19.40;99.90
33149;DHT22;19506;51.040;3.856;2022-09-24T06:03:55;19.50;99.90
33149;DHT22;19506;51.040;3.856;2022-09-24T06:06:22;19.50;99.90
33149;DHT22;19506;51.040;3.856;2022-09-24T06:08:48;19.50;99.90
33149;DHT22;19506;51.040;3.856;2022-09-24T06:11:13;19.40;99.90
33149;DHT22;19506;51.040;3.856;2022-09-24T06:13:39;19.50;99.90
33149;DHT22;19506;51.040;3.856;2022-09-24T06:16:07;19.40;99.90
33149;DHT22;19506;51.040;3.856;2022-09-24T06:18:38;19.40;99.90
33149;DHT22;19506;51.040;3.856;2022-09-24T06:21:11;19.50;99.90
33149;DHT22;19506;51.040;3.856;2022-09-24T06:23:38;19.50;99.90
33149;DHT22;19506;51.040;3.856;2022-09-24T06:26:05;19.50;99.90
33149;DHT22;19506;51.040;3.856;2022-09-24T06:28:33;19.50;99.90
33149;DHT22;19506;51.040;3.856;2022-09-24T06:30:59;19.50;99.90
33149;DHT22;19506;51.040;3.856;2022-09-24T06:33:25;19.40;99.90
33149;DHT22;19506;51.040;3.856;2022-09-24T06:35:52;19.50;99.90
33149;DHT22;19506;51.040;3.856;2022-09-24T06:38:18;19.50;99.90
33149;DHT22;19506;51.040;3.856;2022-09-24T06:40:46;19.50;99.90
33149;DHT22;19506;51.040;3.856;2022-09-24T06:43:13;19.50;99.90
33149;DHT22;19506;51.040;3.856;2022-09-24T06:45:40;19.50;99.90
33149;DHT22;19506;51.040;3.856;2022-09-24T06:48:09;19.50;99.90
33149;DHT22;19506;51.040;3.856;2022-09-24T06:50:41;19.50;99.90
33149;DHT22;19506;51.040;3.856;2022-09-24T06:53:09;19.50;99.90
33149;DHT22;19506;51.040;3.856;2022-09-24T06:55:36;19.50;99.90
33149;DHT22;19506;51.040;3.856;2022-09-24T06:58:11;19.50;99.90
33149;DHT22;19506;51.040;3.856;2022-09-24T07:00:38;19.40;99.90
33149;DHT22;19506;51.040;3.856;2022-09-24T07:03:05;19.40;99.90
33149;DHT22;19506;51.040;3.856;2022-09-24T07:05:32;19.40;99.90
33149;DHT22;19506;51.040;3.856;2022-09-24T07:07:58;19.40;99.90
33149;DHT22;19506;51.040;3.856;2022-09-24T07:10:24;19.40;99.90
33149;DHT22;19506;51.040;3.856;2022-09-24T07:12:50;19.40;99.90
33149;DHT22;19506;51.040;3.856;2022-09-24T07:15:16;19.40;99.90
33149;DHT22;19506;51.040;3.856;2022-09-24T07:17:42;19.40;99.90
33149;DHT22;19506;51.040;3.856;2022-09-24T07:20:08;19.30;99.90
33149;DHT22;19506;51.040;3.856;2022-09-24T07:22:38;19.30;99.90
33149;DHT22;19506;51.040;3.856;2022-09-24T07:25:09;19.30;99.90
33149;DHT22;19506;51.040;3.856;2022-09-24T07:27:35;19.30;99.90
33149;DHT22;19506;51.040;3.856;2022-09-24T07:30:01;19.30;99.90
33149;DHT22;19506;51.040;3.856;2022-09-24T07:32:27;19.40;99.90
33149;DHT22;19506;51.040;3.856;2022-09-24T07:34:52;19.40;99.90
33149;DHT22;19506;51.040;3.856;2022-09-24T07:37:18;19.40;99.90
33149;DHT22;19506;51.040;3.856;2022-09-24T07:39:44;19.40;99.90
33149;DHT22;19506;51.040;3.856;2022-09-24T07:42:10;19.40;99.90
33149;DHT22;19506;51.040;3.856;2022-09-24T07:44:35;19.40;99.90
33149;DHT22;19506;51.040;3.856;2022-09-24T07:47:02;19.30;99.90
33149;DHT22;19506;51.040;3.856;2022-09-24T07:49:28;19.30;99.90
33149;DHT22;19506;51.040;3.856;2022-09-24T07:51:56;19.30;99.90
33149;DHT22;19506;51.040;3.856;2022-09-24T07:54:22;19.30;99.90
33149;DHT22;19506;51.040;3.856;2022-09-24T07:56:48;19.30;99.90
33149;DHT22;19506;51.040;3.856;2022-09-24T07:59:14;19.30;99.90
33149;DHT22;19506;51.040;3.856;2022-09-24T08:01:39;19.20;99.90
33149;DHT22;19506;51.040;3.856;2022-09-24T08:04:05;19.20;99.90
33149;DHT22;19506;51.040;3.856;2022-09-24T08:06:34;19.20;99.90
33149;DHT22;19506;51.040;3.856;2022-09-24T08:09:00;19.10;99.90
33149;DHT22;19506;51.040;3.856;2022-09-24T08:11:27;19.20;99.90
33149;DHT22;19506;51.040;3.856;2022-09-24T08:13:55;19.10;99.90
33149;DHT22;19506;51.040;3.856;2022-09-24T08:16:22;19.10;99.90
33149;DHT22;19506;51.040;3.856;2022-09-24T08:18:48;19.10;99.90
33149;DHT22;19506;51.040;3.856;2022-09-24T08:21:14;19.00;99.90
33149;DHT22;19506;51.040;3.856;2022-09-24T08:23:41;19.00;99.90
33149;DHT22;19506;51.040;3.856;2022-09-24T08:26:08;19.00;99.90
33149;DHT22;19506;51.040;3.856;2022-09-24T08:28:34;19.00;99.90
33149;DHT22;19506;51.040;3.856;2022-09-24T08:31:04;19.00;99.90
33149;DHT22;19506;51.040;3.856;2022-09-24T08:33:33;18.90;99.90
33149;DHT22;19506;51.040;3.856;2022-09-24T08:36:00;19.00;99.90
33149;DHT22;19506;51.040;3.856;2022-09-24T08:38:26;18.90;99.90
33149;DHT22;19506;51.040;3.856;2022-09-24T08:41:04;18.90;99.90
33149;DHT22;19506;51.040;3.856;2022-09-24T08:44:03;18.90;99.90
33149;DHT22;19506;51.040;3.856;2022-09-24T08:46:41;18.90;99.90
33149;DHT22;19506;51.040;3.856;2022-09-24T08:49:36;18.90;99.90
33149;DHT22;19506;51.040;3.856;2022-09-24T08:54:35;18.80;99.90
33149;DHT22;19506;51.040;3.856;2022-09-24T08:57:09;18.80;99.90
33149;DHT22;19506;51.040;3.856;2022-09-24T08:59:36;18.80;99.90
33149;DHT22;19506;51.040;3.856;2022-09-24T09:02:27;18.80;99.90
33149;DHT22;19506;51.040;3.856;2022-09-24T09:10:22;18.80;99.90
33149;DHT22;19506;51.040;3.856;2022-09-24T09:15:42;18.70;99.90
33149;DHT22;19506;51.040;3.856;2022-09-24T09:18:22;18.70;99.90
33149;DHT22;19506;51.040;3.856;2022-09-24T09:20:49;18.70;99.90
33149;DHT22;19506;51.040;3.856;2022-09-24T09:23:21;18.70;99.90
33149;DHT22;19506;51.040;3.856;2022-09-24T09:25:55;18.70;99.90
33149;DHT22;19506;51.040;3.856;2022-09-24T09:28:21;18.70;99.90
33149;DHT22;19506;51.040;3.856;2022-09-24T09:30:59;18.70;99.90
33149;DHT22;19506;51.040;3.856;2022-09-24T09:36:32;18.70;99.90
33149;DHT22;19506;51.040;3.856;2022-09-24T09:39:30;18.70;99.90
33149;DHT22;19506;51.040;3.856;2022-09-24T09:42:07;18.70;99.90
33149;DHT22;19506;51.040;3.856;2022-09-24T09:44:40;18.70;99.90
33149;DHT22;19506;51.040;3.856;2022-09-24T09:47:21;18.80;99.90
33149;DHT22;19506;51.040;3.856;2022-09-24T09:49:53;18.80;99.90
33149;DHT22;19506;51.040;3.856;2022-09-24T09:52:23;18.80;99.90
33149;DHT22;19506;51.040;3.856;2022-09-24T09:54:51;18.80;99.90
33149;DHT22;19506;51.040;3.856;2022-09-24T09:57:20;18.80;99.90
33149;DHT22;19506;51.040;3.856;2022-09-24T09:59:49;18.80;99.90
33149;DHT22;19506;51.040;3.856;2022-09-24T10:02:26;18.80;99.90
33149;DHT22;19506;51.040;3.856;2022-09-24T10:04:54;18.80;99.90
33149;DHT22;19506;51.040;3.856;2022-09-24T10:07:20;18.90;99.90
33149;DHT22;19506;51.040;3.856;2022-09-24T10:10:01;18.90;99.90
33149;DHT22;19506;51.040;3.856;2022-09-24T10:12:28;18.90;99.90
33149;DHT22;19506;51.040;3.856;2022-09-24T10:17:41;18.90;99.90
33149;DHT22;19506;51.040;3.856;2022-09-24T10:20:21;18.90;99.90
33149;DHT22;19506;51.040;3.856;2022-09-24T10:22:56;18.90;99.90
33149;DHT22;19506;51.040;3.856;2022-09-24T10:25:26;18.90;99.90
33149;DHT22;19506;51.040;3.856;2022-09-24T10:27:56;18.90;99.90
33149;DHT22;19506;51.040;3.856;2022-09-24T10:31:04;18.80;99.90
33149;DHT22;19506;51.040;3.856;2022-09-24T10:33:38;18.80;99.90
33149;DHT22;19506;51.040;3.856;2022-09-24T10:36:27;18.80;99.90
33149;DHT22;19506;51.040;3.856;2022-09-24T10:39:13;18.80;99.90
33149;DHT22;19506;51.040;3.856;2022-09-24T10:41:54;18.90;99.90
33149;DHT22;19506;51.040;3.856;2022-09-24T10:44:22;18.90;99.90
33149;DHT22;19506;51.040;3.856;2022-09-24T10:55:05;18.90;99.90
33149;DHT22;19506;51.040;3.856;2022-09-24T11:00:28;18.90;99.90
33149;DHT22;19506;51.040;3.856;2022-09-24T11:06:09;18.90;99.90
33149;DHT22;19506;51.040;3.856;2022-09-24T11:08:55;18.90;99.90
33149;DHT22;19506;51.040;3.856;2022-09-24T11:14:48;18.90;99.90
33149;DHT22;19506;51.040;3.856;2022-09-24T11:16:57;18.90;99.90
33149;DHT22;19506;51.040;3.856;2022-09-24T11:31:30;19.00;99.90
33149;DHT22;19506;51.040;3.856;2022-09-24T11:36:58;19.00;99.90
33149;DHT22;19506;51.040;3.856;2022-09-24T11:42:26;19.00;99.90
33149;DHT22;19506;51.040;3.856;2022-09-24T11:45:20;19.10;99.90
33149;DHT22;19506;51.040;3.856;2022-09-24T11:56:08;19.10;99.90
33149;DHT22;19506;51.040;3.856;2022-09-24T11:58:49;19.10;99.90
33149;DHT22;19506;51.040;3.856;2022-09-24T12:01:28;19.10;99.90
33149;DHT22;19506;51.040;3.856;2022-09-24T12:04:15;19.10;99.90
33149;DHT22;19506;51.040;3.856;2022-09-24T12:06:49;19.10;99.90
33149;DHT22;19506;51.040;3.856;2022-09-24T12:11:58;19.00;99.90
33149;DHT22;19506;51.040;3.856;2022-09-24T12:20:28;19.10;99.90
33149;DHT22;19506;51.040;3.856;2022-09-24T12:23:08;19.10;99.90
33149;DHT22;19506;51.040;3.856;2022-09-24T12:25:44;19.10;99.90
33149;DHT22;19506;51.040;3.856;2022-09-24T12:28:16;19.10;99.90
33149;DHT22;19506;51.040;3.856;2022-09-24T12:31:09;19.10;99.90
33149;DHT22;19506;51.040;3.856;2022-09-24T12:34:06;19.10;99.90
33149;DHT22;19506;51.040;3.856;2022-09-24T12:37:06;19.10;99.90
33149;DHT22;19506;51.040;3.856;2022-09-24T12:42:35;19.10;99.90
33149;DHT22;19506;51.040;3.856;2022-09-24T12:45:04;19.00;99.90
33149;DHT22;19506;51.040;3.856;2022-09-24T12:47:32;19.00;99.90
33149;DHT22;19506;51.040;3.856;2022-09-24T12:50:03;19.00;99.90
33149;DHT22;19506;51.040;3.856;2022-09-24T12:52:40;19.00;99.90
33149;DHT22;19506;51.040;3.856;2022-09-24T12:55:27;18.90;99.90
33149;DHT22;19506;51.040;3.856;2022-09-24T12:57:59;18.90;99.90
33149;DHT22;19506;51.040;3.856;2022-09-24T13:00:40;18.90;99.90
33149;DHT22;19506;51.040;3.856;2022-09-24T13:05:55;18.90;99.90
33149;DHT22;19506;51.040;3.856;2022-09-24T13:08:26;18.90;99.90
33149;DHT22;19506;51.040;3.856;2022-09-24T13:11:00;18.90;99.90
33149;DHT22;19506;51.040;3.856;2022-09-24T13:13:32;18.90;99.90
33149;DHT22;19506;51.040;3.856;2022-09-24T13:16:05;18.90;99.90
33149;DHT22;19506;51.040;3.856;2022-09-24T13:18:33;18.90;99.90
33149;DHT22;19506;51.040;3.856;2022-09-24T13:21:07;18.90;99.90
33149;DHT22;19506;51.040;3.856;2022-09-24T13:26:07;19.00;99.90
33149;DHT22;19506;51.040;3.856;2022-09-24T13:31:46;18.90;99.90
33149;DHT22;19506;51.040;3.856;2022-09-24T13:34:23;18.90;99.90
33149;DHT22;19506;51.040;3.856;2022-09-24T13:37:10;18.90;99.90
33149;DHT22;19506;51.040;3.856;2022-09-24T13:39:46;18.90;99.90
33149;DHT22;19506;51.040;3.856;2022-09-24T13:42:36;18.90;99.90
33149;DHT22;19506;51.040;3.856;2022-09-24T13:45:30;18.90;99.90
33149;DHT22;19506;51.040;3.856;2022-09-24T13:48:04;18.90;99.90
33149;DHT22;19506;51.040;3.856;2022-09-24T13:50:43;18.90;99.90
33149;DHT22;19506;51.040;3.856;2022-09-24T13:53:38;18.90;99.90
33149;DHT22;19506;51.040;3.856;2022-09-24T13:56:12;18.90;99.90
33149;DHT22;19506;51.040;3.856;2022-09-24T13:58:39;18.90;99.90
33149;DHT22;19506;51.040;3.856;2022-09-24T14:01:15;18.90;99.90
33149;DHT22;19506;51.040;3.856;2022-09-24T14:03:50;18.90;99.90
33149;DHT22;19506;51.040;3.856;2022-09-24T14:06:18;18.90;99.90
33149;DHT22;19506;51.040;3.856;2022-09-24T14:08:47;18.90;99.90
33149;DHT22;19506;51.040;3.856;2022-09-24T14:11:21;18.90;99.90
33149;DHT22;19506;51.040;3.856;2022-09-24T14:13:50;18.90;99.90
33149;DHT22;19506;51.040;3.856;2022-09-24T14:16:19;18.90;99.90
33149;DHT22;19506;51.040;3.856;2022-09-24T14:18:45;18.90;99.90
33149;DHT22;19506;51.040;3.856;2022-09-24T14:21:27;18.90;99.90
33149;DHT22;19506;51.040;3.856;2022-09-24T14:24:02;18.90;99.90
33149;DHT22;19506;51.040;3.856;2022-09-24T14:28:59;18.90;99.90
33149;DHT22;19506;51.040;3.856;2022-09-24T14:31:26;18.90;99.90
33149;DHT22;19506;51.040;3.856;2022-09-24T14:33:52;18.90;99.90
33149;DHT22;19506;51.040;3.856;2022-09-24T14:36:18;18.90;99.90
33149;DHT22;19506;51.040;3.856;2022-09-24T14:38:57;18.90;99.90
33149;DHT22;19506;51.040;3.856;2022-09-24T14:41:28;19.00;99.90
33149;DHT22;19506;51.040;3.856;2022-09-24T14:44:02;19.00;99.90
33149;DHT22;19506;51.040;3.856;2022-09-24T14:46:34;18.90;99.90
33149;DHT22;19506;51.040;3.856;2022-09-24T14:52:00;18.90;99.90
33149;DHT22;19506;51.040;3.856;2022-09-24T14:54:36;18.90;99.90
33149;DHT22;19506;51.040;3.856;2022-09-24T14:57:23;18.90;99.90
33149;DHT22;19506;51.040;3.856;2022-09-24T14:59:49;18.90;99.90
33149;DHT22;19506;51.040;3.856;2022-09-24T15:02:32;18.90;99.90
33149;DHT22;19506;51.040;3.856;2022-09-24T15:05:01;18.90;99.90
33149;DHT22;19506;51.040;3.856;2022-09-24T15:07:29;18.90;99.90
33149;DHT22;19506;51.040;3.856;2022-09-24T15:09:57;18.90;99.90
33149;DHT22;19506;51.040;3.856;2022-09-24T15:12:25;18.90;99.90
33149;DHT22;19506;51.040;3.856;2022-09-24T15:17:49;18.90;99.90
33149;DHT22;19506;51.040;3.856;2022-09-24T15:20:15;19.00;99.90
33149;DHT22;19506;51.040;3.856;2022-09-24T15:22:41;18.90;99.90
33149;DHT22;19506;51.040;3.856;2022-09-24T15:25:06;19.00;99.90
33149;DHT22;19506;51.040;3.856;2022-09-24T15:27:37;18.90;99.90
33149;DHT22;19506;51.040;3.856;2022-09-24T15:30:05;18.90;99.90
33149;DHT22;19506;51.040;3.856;2022-09-24T15:32:33;18.90;99.90
33149;DHT22;19506;51.040;3.856;2022-09-24T15:35:03;18.90;99.90
33149;DHT22;19506;51.040;3.856;2022-09-24T15:37:36;18.90;99.90
33149;DHT22;19506;51.040;3.856;2022-09-24T15:40:22;18.90;99.90
33149;DHT22;19506;51.040;3.856;2022-09-24T15:42:49;18.90;99.90
33149;DHT22;19506;51.040;3.856;2022-09-24T15:45:18;19.00;99.90
33149;DHT22;19506;51.040;3.856;2022-09-24T15:47:46;19.00;99.90
33149;DHT22;19506;51.040;3.856;2022-09-24T15:50:12;19.00;99.90
33149;DHT22;19506;51.040;3.856;2022-09-24T15:52:51;19.00;99.90
33149;DHT22;19506;51.040;3.856;2022-09-24T15:55:19;19.00;99.90
33149;DHT22;19506;51.040;3.856;2022-09-24T15:57:45;19.00;99.90
33149;DHT22;19506;51.040;3.856;2022-09-24T16:00:13;19.00;99.90
33149;DHT22;19506;51.040;3.856;2022-09-24T16:02:39;19.00;99.90
33149;DHT22;19506;51.040;3.856;2022-09-24T16:05:12;19.00;99.90
33149;DHT22;19506;51.040;3.856;2022-09-24T16:07:37;19.00;99.90
33149;DHT22;19506;51.040;3.856;2022-09-24T16:10:04;19.00;99.90
33149;DHT22;19506;51.040;3.856;2022-09-24T16:12:33;19.00;99.90
33149;DHT22;19506;51.040;3.856;2022-09-24T16:14:58;19.00;99.90
33149;DHT22;19506;51.040;3.856;2022-09-24T16:17:25;19.00;99.90
33149;DHT22;19506;51.040;3.856;2022-09-24T16:19:52;19.00;99.90
33149;DHT22;19506;51.040;3.856;2022-09-24T16:22:18;19.00;99.90
33149;DHT22;19506;51.040;3.856;2022-09-24T16:24:44;19.00;99.90
33149;DHT22;19506;51.040;3.856;2022-09-24T16:27:09;19.00;99.90
33149;DHT22;19506;51.040;3.856;2022-09-24T16:29:35;19.00;99.90
33149;DHT22;19506;51.040;3.856;2022-09-24T16:32:01;19.00;99.90
33149;DHT22;19506;51.040;3.856;2022-09-24T16:34:28;19.00;99.90
33149;DHT22;19506;51.040;3.856;2022-09-24T16:36:54;18.90;99.90
33149;DHT22;19506;51.040;3.856;2022-09-24T16:39:20;18.90;99.90
33149;DHT22;19506;51.040;3.856;2022-09-24T16:41:49;18.90;99.90
33149;DHT22;19506;51.040;3.856;2022-09-24T16:44:16;18.90;99.90
33149;DHT22;19506;51.040;3.856;2022-09-24T16:46:42;18.90;99.90
33149;DHT22;19506;51.040;3.856;2022-09-24T16:49:08;18.90;99.90
33149;DHT22;19506;51.040;3.856;2022-09-24T16:51:34;18.90;99.90
33149;DHT22;19506;51.040;3.856;2022-09-24T16:54:00;18.90;99.90
33149;DHT22;19506;51.040;3.856;2022-09-24T16:56:26;18.90;99.90
33149;DHT22;19506;51.040;3.856;2022-09-24T16:58:52;18.90;99.90
33149;DHT22;19506;51.040;3.856;2022-09-24T17:01:19;18.80;99.90
33149;DHT22;19506;51.040;3.856;2022-09-24T17:03:52;18.80;99.90
33149;DHT22;19506;51.040;3.856;2022-09-24T17:06:20;18.80;99.90
33149;DHT22;19506;51.040;3.856;2022-09-24T17:08:47;18.80;99.90
33149;DHT22;19506;51.040;3.856;2022-09-24T17:11:31;18.80;99.90
33149;DHT22;19506;51.040;3.856;2022-09-24T17:13:58;18.80;99.90
33149;DHT22;19506;51.040;3.856;2022-09-24T17:16:24;18.80;99.90
33149;DHT22;19506;51.040;3.856;2022-09-24T17:18:50;18.70;99.90
33149;DHT22;19506;51.040;3.856;2022-09-24T17:21:19;18.70;99.90
33149;DHT22;19506;51.040;3.856;2022-09-24T17:23:45;18.70;99.90
33149;DHT22;19506;51.040;3.856;2022-09-24T17:26:16;18.70;99.90
33149;DHT22;19506;51.040;3.856;2022-09-24T17:28:44;18.70;99.90
33149;DHT22;19506;51.040;3.856;2022-09-24T17:31:12;18.60;99.90
33149;DHT22;19506;51.040;3.856;2022-09-24T17:33:39;18.60;99.90
33149;DHT22;19506;51.040;3.856;2022-09-24T17:36:09;18.60;99.90
33149;DHT22;19506;51.040;3.856;2022-09-24T17:38:35;18.60;99.90
33149;DHT22;19506;51.040;3.856;2022-09-24T17:41:04;18.60;99.90
33149;DHT22;19506;51.040;3.856;2022-09-24T17:43:30;18.60;99.90
33149;DHT22;19506;51.040;3.856;2022-09-24T17:46:00;18.70;99.90
33149;DHT22;19506;51.040;3.856;2022-09-24T17:48:31;18.70;99.90
33149;DHT22;19506;51.040;3.856;2022-09-24T17:51:01;18.70;99.90
33149;DHT22;19506;51.040;3.856;2022-09-24T17:53:30;18.70;99.90
33149;DHT22;19506;51.040;3.856;2022-09-24T17:55:57;18.70;99.90
33149;DHT22;19506;51.040;3.856;2022-09-24T17:58:23;18.70;99.90
33149;DHT22;19506;51.040;3.856;2022-09-24T18:00:50;18.70;99.90
33149;DHT22;19506;51.040;3.856;2022-09-24T18:03:16;18.70;99.90
33149;DHT22;19506;51.040;3.856;2022-09-24T18:05:42;18.70;99.90
33149;DHT22;19506;51.040;3.856;2022-09-24T18:08:09;18.70;99.90
33149;DHT22;19506;51.040;3.856;2022-09-24T18:10:36;18.70;99.90
33149;DHT22;19506;51.040;3.856;2022-09-24T18:13:02;18.70;99.90
33149;DHT22;19506;51.040;3.856;2022-09-24T18:15:29;18.70;99.90
33149;DHT22;19506;51.040;3.856;2022-09-24T18:17:55;18.70;99.90
33149;DHT22;19506;51.040;3.856;2022-09-24T18:20:22;18.70;99.90
33149;DHT22;19506;51.040;3.856;2022-09-24T18:22:49;18.70;99.90
33149;DHT22;19506;51.040;3.856;2022-09-24T18:25:15;18.70;99.90
33149;DHT22;19506;51.040;3.856;2022-09-24T18:27:40;18.80;99.90
33149;DHT22;19506;51.040;3.856;2022-09-24T18:30:07;18.80;99.90
33149;DHT22;19506;51.040;3.856;2022-09-24T18:32:36;18.80;99.90
33149;DHT22;19506;51.040;3.856;2022-09-24T18:35:05;18.80;99.90
33149;DHT22;19506;51.040;3.856;2022-09-24T18:37:34;18.70;99.90
33149;DHT22;19506;51.040;3.856;2022-09-24T18:40:01;18.80;99.90
33149;DHT22;19506;51.040;3.856;2022-09-24T18:42:27;18.70;99.90
33149;DHT22;19506;51.040;3.856;2022-09-24T18:44:53;18.60;99.90
33149;DHT22;19506;51.040;3.856;2022-09-24T18:47:19;18.60;99.90
33149;DHT22;19506;51.040;3.856;2022-09-24T18:49:45;18.60;99.90
33149;DHT22;19506;51.040;3.856;2022-09-24T18:52:11;18.60;99.90
33149;DHT22;19506;51.040;3.856;2022-09-24T18:54:38;18.60;99.90
33149;DHT22;19506;51.040;3.856;2022-09-24T18:57:03;18.60;99.90
33149;DHT22;19506;51.040;3.856;2022-09-24T18:59:29;18.60;99.90
33149;DHT22;19506;51.040;3.856;2022-09-24T19:01:59;18.50;99.90
33149;DHT22;19506;51.040;3.856;2022-09-24T19:04:24;18.50;99.90
33149;DHT22;19506;51.040;3.856;2022-09-24T19:06:50;18.50;99.90
33149;DHT22;19506;51.040;3.856;2022-09-24T19:09:17;18.50;99.90
33149;DHT22;19506;51.040;3.856;2022-09-24T19:11:45;18.50;99.90
33149;DHT22;19506;51.040;3.856;2022-09-24T19:14:12;18.50;99.90
33149;DHT22;19506;51.040;3.856;2022-09-24T19:16:39;18.50;99.90
33149;DHT22;19506;51.040;3.856;2022-09-24T19:19:05;18.50;99.90
33149;DHT22;19506;51.040;3.856;2022-09-24T19:21:31;18.50;99.90
33149;DHT22;19506;51.040;3.856;2022-09-24T19:23:57;18.50;99.90
33149;DHT22;19506;51.040;3.856;2022-09-24T19:26:31;18.50;99.90
33149;DHT22;19506;51.040;3.856;2022-09-24T19:28:57;18.50;99.90
33149;DHT22;19506;51.040;3.856;2022-09-24T19:31:26;18.40;99.90
33149;DHT22;19506;51.040;3.856;2022-09-24T19:33:54;18.40;99.90
33149;DHT22;19506;51.040;3.856;2022-09-24T19:36:20;18.40;99.90
33149;DHT22;19506;51.040;3.856;2022-09-24T19:38:47;18.40;99.90
33149;DHT22;19506;51.040;3.856;2022-09-24T19:41:24;18.40;99.90
33149;DHT22;19506;51.040;3.856;2022-09-24T19:43:55;18.40;99.90
33149;DHT22;19506;51.040;3.856;2022-09-24T19:46:24;18.40;99.90
33149;DHT22;19506;51.040;3.856;2022-09-24T19:48:51;18.40;99.90
33149;DHT22;19506;51.040;3.856;2022-09-24T19:51:26;18.40;99.90
33149;DHT22;19506;51.040;3.856;2022-09-24T19:53:57;18.40;99.90
33149;DHT22;19506;51.040;3.856;2022-09-24T19:56:23;18.40;99.90
33149;DHT22;19506;51.040;3.856;2022-09-24T19:58:54;18.40;99.90
33149;DHT22;19506;51.040;3.856;2022-09-24T20:01:22;18.40;99.90
33149;DHT22;19506;51.040;3.856;2022-09-24T20:03:50;18.40;99.90
33149;DHT22;19506;51.040;3.856;2022-09-24T20:06:18;18.40;99.90
33149;DHT22;19506;51.040;3.856;2022-09-24T20:08:44;18.40;99.90
33149;DHT22;19506;51.040;3.856;2022-09-24T20:11:13;18.40;99.90
33149;DHT22;19506;51.040;3.856;2022-09-24T20:13:49;18.40;99.90
33149;DHT22;19506;51.040;3.856;2022-09-24T20:16:20;18.40;99.90
33149;DHT22;19506;51.040;3.856;2022-09-24T20:18:51;18.40;99.90
33149;DHT22;19506;51.040;3.856;2022-09-24T20:21:18;18.30;99.90
33149;DHT22;19506;51.040;3.856;2022-09-24T20:23:45;18.30;99.90
33149;DHT22;19506;51.040;3.856;2022-09-24T20:26:12;18.40;99.90
33149;DHT22;19506;51.040;3.856;2022-09-24T20:28:57;18.40;99.90
33149;DHT22;19506;51.040;3.856;2022-09-24T20:31:24;18.30;99.90
33149;DHT22;19506;51.040;3.856;2022-09-24T20:33:50;18.30;99.90
33149;DHT22;19506;51.040;3.856;2022-09-24T20:36:17;18.30;99.90
33149;DHT22;19506;51.040;3.856;2022-09-24T20:38:45;18.30;99.90
33149;DHT22;19506;51.040;3.856;2022-09-24T20:41:17;18.30;99.90
33149;DHT22;19506;51.040;3.856;2022-09-24T20:43:43;18.30;99.90
33149;DHT22;19506;51.040;3.856;2022-09-24T20:46:13;18.30;99.90
33149;DHT22;19506;51.040;3.856;2022-09-24T20:48:40;18.30;99.90